Time;durP1;ratioP1;P1;durP2;ratioP2;P2;SDS_P1;SDS_P2;PMS_P1;PMS_P2;Temp;Humidity;BMP_temperature;BMP_pressure;BME280_temperature;BME280_humidity;BME280_pressure;Samples;Min_cycle;Max_cycle;Signal;HPM_P1;HPM_P2
2021/01/10 00:00:24;;;;;;;4.45;3.67;;;;;;;22.58;43.36;94921.25;5032988;28;20496;-75
2021/01/10 00:02:50;;;;;;;4.55;3.15;;;;;;;22.57;43.20;94930.66;5033045;28;20049;-75
2021/01/10 00:05:23;;;;;;;4.43;3.72;;;;;;;22.55;43.49;94911.38;5031798;28;20037;-75
2021/01/10 00:07:49;;;;;;;4.30;3.45;;;;;;;22.47;43.48;94905.00;5033082;28;20055;-75
2021/01/10 00:10:14;;;;;;;4.45;3.38;;;;;;;22.45;43.79;94899.31;5032643;28;20068;-76
2021/01/10 00:12:40;;;;;;;4.82;3.58;;;;;;;22.44;43.75;94911.47;5032423;28;20036;-76
2021/01/10 00:15:06;;;;;;;4.30;3.35;;;;;;;22.40;43.65;94916.41;5032797;28;20021;-75
2021/01/10 00:17:32;;;;;;;5.13;3.55;;;;;;;22.41;43.65;94917.91;5032921;28;20121;-75
2021/01/10 00:19:58;;;;;;;4.47;3.20;;;;;;;22.39;43.94;94925.84;5031748;28;20029;-75
2021/01/10 00:22:23;;;;;;;4.25;3.20;;;;;;;22.37;43.58;94933.75;5031508;28;20513;-75
2021/01/10 00:24:49;;;;;;;4.55;3.85;;;;;;;22.34;43.68;94929.31;5033073;28;20079;-76
2021/01/10 00:27:16;;;;;;;3.70;3.10;;;;;;;22.31;43.73;94935.75;5031538;28;20437;-76
2021/01/10 00:29:46;;;;;;;4.13;3.13;;;;;;;22.24;43.95;94928.16;5032091;28;20037;-76
2021/01/10 00:32:11;;;;;;;3.83;3.20;;;;;;;22.28;43.71;94931.34;5031321;28;20052;-76
2021/01/10 00:34:37;;;;;;;4.32;3.00;;;;;;;22.25;43.72;94943.22;5031253;28;20034;-75
2021/01/10 00:37:08;;;;;;;4.32;3.38;;;;;;;22.22;43.95;94938.78;5031200;28;20021;-75
2021/01/10 00:39:34;;;;;;;3.72;3.05;;;;;;;22.20;43.88;94941.25;5032332;28;20029;-75
2021/01/10 00:42:03;;;;;;;4.40;3.10;;;;;;;22.12;44.18;94937.59;5032085;28;20045;-75
2021/01/10 00:44:28;;;;;;;3.95;3.15;;;;;;;22.18;43.91;94943.75;5031198;28;20040;-75
2021/01/10 00:46:54;;;;;;;3.65;2.90;;;;;;;22.00;44.08;94897.34;5032121;28;20037;-75
2021/01/10 00:49:19;;;;;;;4.07;3.00;;;;;;;22.12;43.94;94928.69;5032213;28;20483;-75
2021/01/10 00:51:48;;;;;;;4.53;3.20;;;;;;;22.11;44.07;94933.38;5032284;28;20108;-75
2021/01/10 00:54:14;;;;;;;3.60;3.10;;;;;;;22.08;43.98;94923.50;5030854;28;20063;-76
2021/01/10 00:56:39;;;;;;;3.75;2.92;;;;;;;22.05;44.13;94919.06;5032073;28;20445;-76
2021/01/10 00:59:04;;;;;;;4.45;3.20;;;;;;;22.04;44.10;94923.03;5031765;28;20040;-76
2021/01/10 01:01:30;;;;;;;3.95;3.10;;;;;;;22.02;44.06;94911.91;5030886;28;20502;-75
2021/01/10 01:03:55;;;;;;;4.13;3.00;;;;;;;22.02;44.06;94903.78;5030825;28;20414;-76
2021/01/10 01:06:21;;;;;;;3.72;2.85;;;;;;;21.98;43.69;94916.88;5031659;28;20557;-75
2021/01/10 01:08:47;;;;;;;3.65;3.05;;;;;;;21.99;44.22;94921.09;5031911;28;20498;-75
2021/01/10 01:11:12;;;;;;;3.83;2.83;;;;;;;21.79;44.09;94890.03;5031517;28;20486;-75
2021/01/10 01:13:38;;;;;;;3.38;2.50;;;;;;;21.94;43.95;94908.25;5031749;28;20036;-76
2021/01/10 01:16:06;;;;;;;3.97;2.85;;;;;;;21.93;44.28;94914.94;5031899;28;20486;-76
2021/01/10 01:18:31;;;;;;;3.65;2.83;;;;;;;21.92;44.17;94927.03;5031831;28;20057;-76
2021/01/10 01:20:57;;;;;;;3.70;2.47;;;;;;;21.92;44.21;94918.88;5031911;28;20482;-76
2021/01/10 01:23:22;;;;;;;4.13;3.00;;;;;;;21.90;44.20;94912.50;5030522;28;20029;-76
2021/01/10 01:25:49;;;;;;;3.67;2.83;;;;;;;21.86;44.21;94894.97;5031498;28;20044;-76
2021/01/10 01:28:15;;;;;;;3.60;2.55;;;;;;;21.85;44.29;94894.19;5030143;28;20021;-76
2021/01/10 01:30:40;;;;;;;3.55;2.75;;;;;;;21.85;44.34;94904.34;5031164;28;20036;-75
2021/01/10 01:33:06;;;;;;;3.75;2.60;;;;;;;21.83;44.17;94901.41;5030218;28;20021;-75
2021/01/10 01:35:31;;;;;;;3.80;2.50;;;;;;;21.82;44.33;94894.47;5031252;28;20037;-75
2021/01/10 01:37:57;;;;;;;3.15;2.55;;;;;;;21.81;44.15;94887.56;5031579;28;20045;-76
2021/01/10 01:40:23;;;;;;;3.15;2.47;;;;;;;21.77;44.16;94876.97;5031830;28;20025;-76
2021/01/10 01:42:48;;;;;;;3.75;2.60;;;;;;;21.77;44.22;94868.06;5030631;28;20068;-75
2021/01/10 01:45:14;;;;;;;3.65;2.50;;;;;;;21.76;44.29;94872.75;5030938;28;20036;-76
2021/01/10 01:47:39;;;;;;;3.35;2.67;;;;;;;21.75;44.22;94878.69;5030761;28;20505;-75
2021/01/10 01:50:05;;;;;;;3.65;2.42;;;;;;;21.72;44.24;94890.56;5031168;28;20025;-75
2021/01/10 01:52:31;;;;;;;3.88;2.38;;;;;;;21.71;44.44;94891.81;5031004;28;20037;-75
2021/01/10 01:54:57;;;;;;;3.63;2.67;;;;;;;21.55;44.20;94876.31;5030882;28;20048;-76
2021/01/10 01:57:22;;;;;;;2.55;2.08;;;;;;;21.70;44.33;94909.34;5029930;28;20037;-75
2021/01/10 01:59:48;;;;;;;3.40;2.55;;;;;;;21.53;44.23;94890.41;5030808;28;20033;-75
2021/01/10 02:02:13;;;;;;;3.20;2.40;;;;;;;21.58;44.34;94886.94;5029493;28;20576;-75
2021/01/10 02:05:00;;;;;;;3.42;2.55;;;;;;;21.67;44.07;94921.22;5029353;28;20025;-75
2021/01/10 02:07:41;;;;;;;3.38;2.63;;;;;;;21.34;44.10;94880.56;5031196;28;20421;-76
2021/01/10 02:10:08;;;;;;;3.60;2.30;;;;;;;21.64;44.29;94906.69;5029766;28;20328;-76
2021/01/10 02:12:39;;;;;;;2.90;2.05;;;;;;;21.34;44.16;94850.69;5030405;28;20617;-75
2021/01/10 02:15:10;;;;;;;3.53;2.45;;;;;;;21.61;44.35;94890.63;5029363;28;20433;-76
2021/01/10 02:17:35;;;;;;;4.00;2.38;;;;;;;21.60;44.37;94894.59;5030921;28;20021;-76
2021/01/10 02:20:08;;;;;;;3.13;2.25;;;;;;;21.60;44.42;94886.44;5029325;28;20033;-76
2021/01/10 02:22:39;;;;;;;3.17;2.28;;;;;;;21.38;44.10;94872.91;5030931;28;20637;-75
2021/01/10 02:25:05;;;;;;;3.30;2.17;;;;;;;21.59;44.20;94896.56;5028815;28;20101;-75
2021/01/10 02:27:30;;;;;;;3.05;2.33;;;;;;;21.38;43.98;94883.75;5030992;28;20094;-76
2021/01/10 02:29:56;;;;;;;3.15;1.92;;;;;;;21.57;44.12;94906.47;5029534;28;20025;-76
2021/01/10 02:32:21;;;;;;;3.17;2.30;;;;;;;21.58;44.20;94913.34;5029331;28;20025;-76
2021/01/10 02:34:47;;;;;;;3.22;2.25;;;;;;;21.56;44.21;94910.41;5012648;28;20383;-76
2021/01/10 02:37:23;;;;;;;3.30;2.40;;;;;;;21.47;44.26;94902.53;5029605;28;20033;-76
2021/01/10 02:40:10;;;;;;;3.10;2.17;;;;;;;21.46;44.25;94914.63;5029768;28;20052;-75
2021/01/10 02:42:44;;;;;;;2.92;2.20;;;;;;;21.51;44.19;94941.06;5010464;28;20088;-75
2021/01/10 02:45:12;;;;;;;2.78;2.17;;;;;;;21.43;44.24;94934.59;5009346;28;20022;-76
2021/01/10 02:47:38;;;;;;;2.65;2.13;;;;;;;21.47;44.25;94932.41;5025607;28;20116;-76
2021/01/10 02:50:05;;;;;;;2.53;1.98;;;;;;;21.50;44.20;94939.56;5010712;28;20033;-76
2021/01/10 02:52:30;;;;;;;2.88;2.05;;;;;;;21.49;44.14;94943.50;5010573;28;20042;-75
2021/01/10 02:54:57;;;;;;;3.58;2.17;;;;;;;21.48;44.23;94942.06;5014439;28;20030;-76
2021/01/10 02:57:23;;;;;;;3.05;1.95;;;;;;;21.48;44.15;94936.63;5014323;28;20072;-76
2021/01/10 02:59:48;;;;;;;3.53;2.42;;;;;;;21.47;44.07;94929.69;5014858;28;20507;-76
2021/01/10 03:02:14;;;;;;;2.97;2.08;;;;;;;21.23;44.13;94886.03;5012994;28;20064;-76
2021/01/10 03:04:39;;;;;;;2.45;1.90;;;;;;;21.45;44.18;94932.16;5029320;28;20597;-76
2021/01/10 03:07:05;;;;;;;3.08;1.92;;;;;;;21.44;44.28;94925.22;5030017;28;20038;-75
2021/01/10 03:09:31;;;;;;;2.60;1.95;;;;;;;21.44;44.10;94941.53;5027956;28;20108;-75
2021/01/10 03:12:11;;;;;;;2.80;2.28;;;;;;;21.44;44.20;94936.09;5034102;28;20028;-76
2021/01/10 03:14:44;;;;;;;2.28;1.83;;;;;;;21.44;44.09;94944.25;5032915;28;20025;-76
2021/01/10 03:17:14;;;;;;;2.88;2.00;;;;;;;21.42;44.18;94933.16;5033603;28;20033;-76
2021/01/10 03:19:40;;;;;;;3.08;2.10;;;;;;;21.41;44.04;94945.25;5032787;28;20049;-76
2021/01/10 03:22:06;;;;;;;3.28;1.95;;;;;;;21.15;44.02;94917.66;5033786;28;20056;-76
2021/01/10 03:24:31;;;;;;;2.40;1.80;;;;;;;21.39;44.08;94953.16;5033476;28;20072;-76
2021/01/10 03:26:56;;;;;;;2.78;1.95;;;;;;;21.38;44.04;94959.09;5033572;28;20076;-76
2021/01/10 03:29:22;;;;;;;2.55;1.80;;;;;;;21.38;43.96;94965.25;5033821;28;20554;-75
2021/01/10 03:31:47;;;;;;;2.80;1.65;;;;;;;21.36;44.08;94962.31;5033498;28;20029;-75
2021/01/10 03:34:13;;;;;;;3.55;2.00;;;;;;;21.31;44.22;94954.88;5033643;28;20025;-75
2021/01/10 03:36:38;;;;;;;2.58;1.60;;;;;;;21.29;44.14;94967.50;5032520;28;20029;-75
2021/01/10 03:39:04;;;;;;;2.50;1.90;;;;;;;21.34;44.10;94964.75;5033662;28;20056;-74
2021/01/10 03:41:29;;;;;;;2.58;1.48;;;;;;;21.34;44.00;94964.03;5033587;28;20075;-75
2021/01/10 03:43:55;;;;;;;2.60;1.77;;;;;;;21.32;43.98;94961.06;5033357;28;20483;-75
2021/01/10 03:46:21;;;;;;;2.53;1.80;;;;;;;21.14;43.93;94935.16;5033238;28;20037;-75
2021/01/10 03:48:46;;;;;;;2.10;1.60;;;;;;;21.32;44.02;94961.81;5032212;28;20029;-75
2021/01/10 03:51:12;;;;;;;2.03;1.50;;;;;;;21.19;43.87;94931.69;5032982;28;20036;-74
2021/01/10 03:53:37;;;;;;;2.97;1.75;;;;;;;21.48;44.03;94952.91;5032345;28;20410;-75
2021/01/10 03:56:03;;;;;;;2.67;1.60;;;;;;;21.36;43.87;94929.72;5033435;28;20029;-75
2021/01/10 03:58:29;;;;;;;2.53;1.75;;;;;;;21.42;43.95;94933.16;5033539;28;20033;-76
2021/01/10 04:00:54;;;;;;;3.38;1.90;;;;;;;21.59;43.88;94944.72;5033878;28;20414;-75
2021/01/10 04:03:20;;;;;;;2.45;1.58;;;;;;;21.64;43.95;94947.44;5032832;28;20049;-74
2021/01/10 04:05:45;;;;;;;2.97;1.85;;;;;;;21.69;43.64;94943.22;5030727;28;20029;-74
2021/01/10 04:08:11;;;;;;;2.45;1.45;;;;;;;21.71;43.67;94951.59;5032805;28;20034;-75
2021/01/10 04:10:36;;;;;;;2.42;1.60;;;;;;;21.69;43.56;94940.50;5031703;28;20025;-75
2021/01/10 04:13:02;;;;;;;2.38;1.65;;;;;;;21.82;43.43;94954.28;5031657;28;20513;-75
2021/01/10 04:15:27;;;;;;;2.15;1.60;;;;;;;21.84;43.31;94952.56;5033054;28;20499;-75
2021/01/10 04:17:52;;;;;;;3.03;1.80;;;;;;;21.90;43.14;94941.63;5031866;28;20094;-75
2021/01/10 04:20:18;;;;;;;2.42;1.50;;;;;;;21.92;43.16;94951.50;5032521;28;20418;-75
2021/01/10 04:22:43;;;;;;;3.00;1.70;;;;;;;21.95;43.08;94955.22;5033079;28;20034;-75
2021/01/10 04:25:10;;;;;;;2.85;1.60;;;;;;;21.98;43.04;94956.94;5032736;28;20068;-74
2021/01/10 04:27:35;;;;;;;2.40;1.70;;;;;;;21.99;43.08;94940.13;5032933;28;20029;-74
2021/01/10 04:30:03;;;;;;;2.95;1.50;;;;;;;22.04;42.98;94954.94;5031920;28;20505;-75
2021/01/10 04:32:28;;;;;;;2.30;1.40;;;;;;;22.05;42.98;94968.03;5032937;28;20183;-75
2021/01/10 04:34:54;;;;;;;2.53;1.50;;;;;;;22.03;43.10;94954.19;5031423;28;20029;-75
2021/01/10 04:37:19;;;;;;;2.78;1.70;;;;;;;21.92;42.91;94936.47;5032485;28;20033;-75
2021/01/10 04:39:45;;;;;;;2.40;1.58;;;;;;;22.04;42.97;94950.22;5031488;28;20025;-74
2021/01/10 04:42:10;;;;;;;3.30;1.55;;;;;;;22.09;42.95;94957.63;5032892;28;20025;-75
2021/01/10 04:44:36;;;;;;;2.35;1.45;;;;;;;21.96;42.69;94934.94;5032929;28;20021;-75
2021/01/10 04:47:01;;;;;;;2.63;1.60;;;;;;;22.16;42.66;94950.91;5031378;28;20513;-75
2021/01/10 04:49:27;;;;;;;2.05;1.40;;;;;;;22.17;42.68;94942.25;5032791;28;20026;-75
2021/01/10 04:51:52;;;;;;;2.00;1.40;;;;;;;22.20;42.83;94948.69;5031524;28;20559;-75
2021/01/10 04:54:18;;;;;;;2.20;1.50;;;;;;;22.21;42.66;94942.75;5014476;28;20033;-73
2021/01/10 04:56:43;;;;;;;1.70;1.20;;;;;;;22.20;42.75;94946.69;5031420;28;20025;-75
2021/01/10 04:59:09;;;;;;;2.22;1.30;;;;;;;22.14;42.53;94940.53;5032340;28;20037;-74
2021/01/10 05:01:55;;;;;;;1.98;1.33;;;;;;;22.24;42.53;94943.72;5032540;28;20044;-75
2021/01/10 05:04:21;;;;;;;2.58;1.40;;;;;;;22.25;42.54;94943.22;5036691;28;20433;-75
2021/01/10 05:06:47;;;;;;;2.33;1.35;;;;;;;22.28;42.43;94953.09;5034515;28;20104;-74
2021/01/10 05:09:12;;;;;;;3.15;1.75;;;;;;;22.31;42.29;94952.09;5019771;28;20084;-74
2021/01/10 05:11:38;;;;;;;2.15;1.33;;;;;;;22.20;42.37;94930.38;5018591;28;20029;-74
2021/01/10 05:14:03;;;;;;;2.42;1.48;;;;;;;22.18;42.29;94921.97;5025852;28;20052;-75
2021/01/10 05:16:34;;;;;;;1.80;1.30;;;;;;;22.39;42.17;94947.59;5032050;28;20482;-76
2021/01/10 05:19:00;;;;;;;2.70;1.35;;;;;;;22.42;42.08;94952.78;5032375;28;20021;-76
2021/01/10 05:21:26;;;;;;;2.83;1.33;;;;;;;22.45;42.29;94956.44;5031855;28;20164;-72
2021/01/10 05:23:55;;;;;;;3.22;1.52;;;;;;;22.44;41.81;94944.09;5030846;28;20464;-76
2021/01/10 05:26:21;;;;;;;2.35;1.30;;;;;;;22.50;42.10;94955.69;5030389;28;20029;-76
2021/01/10 05:28:49;;;;;;;2.92;1.70;;;;;;;22.48;42.12;94950.00;5030316;28;20053;-73
2021/01/10 05:31:31;;;;;;;2.53;1.48;;;;;;;22.57;41.97;94957.84;5014202;28;20028;-73
2021/01/10 05:33:56;;;;;;;2.00;1.27;;;;;;;22.56;42.04;94967.28;5046958;28;20024;-72
2021/01/10 05:36:29;;;;;;;3.40;1.80;;;;;;;22.56;41.86;94968.00;5031460;28;20064;-77
2021/01/10 05:38:54;;;;;;;2.03;1.30;;;;;;;22.57;41.90;94964.06;5030478;28;20025;-76
2021/01/10 05:41:21;;;;;;;2.25;1.20;;;;;;;22.43;42.16;94943.38;5030328;28;20025;-77
2021/01/10 05:44:00;;;;;;;2.13;1.40;;;;;;;22.59;42.20;94955.38;5030396;28;20033;-76
2021/01/10 05:46:26;;;;;;;2.97;1.92;;;;;;;22.59;41.85;94967.00;5030027;28;20021;-76
2021/01/10 05:48:52;;;;;;;2.30;1.40;;;;;;;22.61;42.21;94975.41;5031605;28;20467;-75
2021/01/10 05:51:18;;;;;;;2.03;1.15;;;;;;;22.38;41.83;94948.84;5013960;28;20026;-80
2021/01/10 05:53:43;;;;;;;2.85;1.48;;;;;;;22.44;42.08;94966.59;5014130;28;20084;-79
2021/01/10 05:56:09;;;;;;;2.53;1.35;;;;;;;22.62;42.09;94997.94;5030164;28;20023;-72
2021/01/10 05:58:34;;;;;;;2.75;1.50;;;;;;;22.62;41.89;95003.38;5030145;28;20021;-76
2021/01/10 06:01:09;;;;;;;2.88;1.50;;;;;;;22.62;41.79;94978.88;5030175;28;20079;-78
2021/01/10 06:03:34;;;;;;;1.90;1.20;;;;;;;22.53;41.40;94949.25;5031873;28;20057;-82
2021/01/10 06:06:00;;;;;;;2.30;1.40;;;;;;;22.65;41.74;94975.16;5013634;28;20037;-78
2021/01/10 06:08:34;;;;;;;2.00;1.30;;;;;;;22.67;41.80;94980.81;5031694;28;20025;-76
2021/01/10 06:11:16;;;;;;;2.17;1.33;;;;;;;22.68;41.30;94990.47;5030587;28;20029;-81
2021/01/10 06:13:46;;;;;;;1.92;1.17;;;;;;;22.62;41.43;94982.31;5030929;28;20465;-79
2021/01/10 06:16:12;;;;;;;1.98;1.33;;;;;;;22.57;41.61;94985.06;5031217;28;20022;-81
2021/01/10 06:18:38;;;;;;;2.08;1.25;;;;;;;22.51;41.86;94987.84;5031457;28;20077;-77
2021/01/10 06:21:03;;;;;;;2.72;1.40;;;;;;;22.45;41.74;94978.22;5014200;28;20108;-80
2021/01/10 06:23:29;;;;;;;2.33;1.10;;;;;;;22.30;41.84;94966.19;5029691;28;20033;-78
2021/01/10 06:25:54;;;;;;;2.28;1.42;;;;;;;22.39;41.71;94991.13;5031196;28;20018;-78
2021/01/10 06:28:19;;;;;;;1.70;1.13;;;;;;;22.15;41.60;94955.63;5012937;28;20041;-84
2021/01/10 06:30:58;;;;;;;2.67;1.20;;;;;;;22.47;41.85;94992.06;5013618;28;20036;-75
2021/01/10 06:33:30;;;;;;;2.47;1.40;;;;;;;22.54;41.26;94988.81;5029627;28;20236;-75
2021/01/10 06:36:03;;;;;;;1.83;1.15;;;;;;;22.59;41.25;94966.28;5030829;28;20388;-76
2021/01/10 06:38:32;;;;;;;2.28;1.35;;;;;;;22.61;41.13;94963.78;5030467;28;20040;-74
2021/01/10 06:41:25;;;;;;;2.05;1.30;;;;;;;22.63;41.15;94983.06;5029142;28;20032;-73
2021/01/10 06:44:03;;;;;;;1.73;1.10;;;;;;;22.65;41.12;94996.91;5030093;28;20032;-75
2021/01/10 06:46:28;;;;;;;1.90;1.20;;;;;;;22.49;41.26;94989.59;5030725;28;20064;-78
2021/01/10 06:48:54;;;;;;;2.55;1.23;;;;;;;22.62;40.90;95019.69;5030010;28;20041;-80
2021/01/10 06:51:22;;;;;;;1.90;1.20;;;;;;;22.66;41.30;95020.91;5029560;28;20066;-79
2021/01/10 06:53:49;;;;;;;2.10;1.20;;;;;;;22.69;41.00;95019.16;5030350;28;20033;-78
2021/01/10 06:56:14;;;;;;;2.38;1.35;;;;;;;22.68;40.81;95023.13;5030923;28;20030;-78
2021/01/10 06:59:00;;;;;;;2.42;1.30;;;;;;;22.70;41.01;95009.75;5010226;28;20029;-82
2021/01/10 07:01:45;;;;;;;2.60;1.20;;;;;;;22.72;41.12;95012.69;5030607;28;20038;-80
2021/01/10 07:04:11;;;;;;;2.05;1.20;;;;;;;22.69;41.07;95019.16;5027033;28;20069;-82
2021/01/10 07:06:49;;;;;;;1.77;1.38;;;;;;;22.72;41.13;95029.03;5018397;28;20079;-73
2021/01/10 07:09:15;;;;;;;2.33;1.17;;;;;;;22.73;41.21;95025.06;5026586;28;20032;-73
2021/01/10 07:11:40;;;;;;;1.90;1.25;;;;;;;22.74;41.54;95026.56;5030033;28;20049;-79
2021/01/10 07:14:06;;;;;;;2.28;1.30;;;;;;;22.75;41.11;95022.56;5030446;28;20022;-82
2021/01/10 07:16:32;;;;;;;1.90;1.35;;;;;;;22.76;41.20;95026.78;5029793;28;20052;-77
2021/01/10 07:19:04;;;;;;;2.10;1.23;;;;;;;22.77;41.19;95031.00;5029954;28;20060;-73
2021/01/10 07:21:38;;;;;;;2.20;1.23;;;;;;;22.77;41.57;95047.31;5029570;28;20117;-82
2021/01/10 07:24:28;;;;;;;2.05;1.00;;;;;;;22.78;41.41;95049.56;5030028;28;20033;-81
2021/01/10 07:26:58;;;;;;;1.40;1.00;;;;;;;22.81;41.25;95053.22;5023966;28;20525;-79
2021/01/10 07:29:41;;;;;;;2.20;1.40;;;;;;;22.80;41.50;95046.31;5029368;28;20509;-73
2021/01/10 07:32:18;;;;;;;1.90;1.17;;;;;;;22.81;41.42;95047.78;5028804;28;20522;-72
2021/01/10 07:34:46;;;;;;;1.50;0.95;;;;;;;22.81;41.25;95053.22;5030010;28;20132;-80
2021/01/10 07:37:15;;;;;;;1.80;1.10;;;;;;;22.81;41.31;95053.97;5030706;28;20022;-75
2021/01/10 07:39:58;;;;;;;1.88;1.20;;;;;;;22.78;41.38;95043.34;5031103;28;20021;-77
2021/01/10 07:42:31;;;;;;;2.22;1.30;;;;;;;22.82;41.34;95049.28;4685235;28;20116;-74
2021/01/10 07:44:59;;;;;;;1.95;1.00;;;;;;;22.35;41.16;94968.88;4929413;28;20107;-75
2021/01/10 07:47:31;;;;;;;1.90;1.40;;;;;;;22.87;41.19;95051.22;5038760;28;20026;-79
2021/01/10 07:49:58;;;;;;;1.67;1.20;;;;;;;22.88;41.21;95036.38;5014609;28;20026;-78
2021/01/10 07:52:41;;;;;;;2.25;1.13;;;;;;;22.89;41.34;95039.31;5000223;28;20086;-80
2021/01/10 07:55:19;;;;;;;1.90;1.15;;;;;;;22.89;41.58;95049.47;5000283;28;20022;-80
2021/01/10 07:57:51;;;;;;;2.17;1.40;;;;;;;22.87;41.52;95056.66;5005195;28;20037;-86
2021/01/10 08:00:21;;;;;;;1.90;1.15;;;;;;;22.80;41.58;95030.72;5004918;28;20034;-89
2021/01/10 08:02:47;;;;;;;;;;;;;;;22.89;41.27;95050.19;5007764;28;20064;-86
2021/01/10 08:05:13;;;;;;;2.70;1.13;;;;;;;22.89;41.46;95044.75;5003558;28;20369;-87
2021/01/10 08:07:45;;;;;;;1.48;1.10;;;;;;;22.88;41.52;95048.75;4993453;28;20030;-88
2021/01/10 08:10:10;;;;;;;1.95;1.30;;;;;;;22.90;41.41;95057.13;5012142;28;20046;-86
2021/01/10 08:12:36;;;;;;;1.83;1.13;;;;;;;22.93;41.43;95049.94;5008998;28;20029;-88
2021/01/10 08:15:03;;;;;;;2.30;1.27;;;;;;;22.92;41.66;95054.63;5026503;28;20769;-86
2021/01/10 08:17:29;;;;;;;1.67;1.10;;;;;;;22.93;41.49;95067.06;5003446;28;20037;-81
2021/01/10 08:19:54;;;;;;;1.95;1.20;;;;;;;22.89;41.34;95063.81;5009052;28;20489;-72
2021/01/10 08:22:20;;;;;;;2.10;1.20;;;;;;;22.72;41.47;95023.59;5029699;28;20053;-71
2021/01/10 08:24:45;;;;;;;2.25;1.40;;;;;;;22.88;41.24;95047.25;4994153;28;20038;-72
2021/01/10 08:27:11;;;;;;;1.63;1.10;;;;;;;22.85;41.06;95040.09;5002733;28;20038;-74
2021/01/10 08:29:36;;;;;;;2.28;1.33;;;;;;;22.93;41.25;95053.44;5009784;28;20041;-72
2021/01/10 08:32:02;;;;;;;1.70;1.30;;;;;;;22.93;41.04;95049.94;5007581;28;20037;-74
2021/01/10 08:34:27;;;;;;;2.10;1.35;;;;;;;22.95;41.02;95059.09;5010763;28;20021;-76
2021/01/10 08:36:53;;;;;;;1.70;1.20;;;;;;;22.82;41.04;95049.28;5013767;28;20498;-74
2021/01/10 08:39:18;;;;;;;2.00;1.40;;;;;;;22.94;41.11;95063.09;4995577;28;20021;-76
2021/01/10 08:41:46;;;;;;;13.38;1.90;;;;;;;22.97;40.94;95062.09;5012311;28;20038;-75
2021/01/10 08:44:14;;;;;;;43.38;4.40;;;;;;;22.88;40.34;95054.19;5013199;28;20026;-80
2021/01/10 08:46:43;;;;;;;19.77;2.55;;;;;;;22.98;40.42;95063.53;5011120;28;20048;-76
2021/01/10 08:49:08;;;;;;;12.00;1.98;;;;;;;23.01;40.60;95065.25;5012528;28;20092;-76
2021/01/10 08:51:43;;;;;;;10.90;1.90;;;;;;;23.09;40.70;95090.72;5011212;28;20046;-76
2021/01/10 08:54:22;;;;;;;8.32;1.80;;;;;;;23.14;40.23;95098.13;5013037;28;20033;-76
2021/01/10 08:56:55;;;;;;;8.37;2.90;;;;;;;23.16;39.94;95076.53;5012443;28;20025;-75
2021/01/10 08:59:20;;;;;;;10.18;2.20;;;;;;;23.11;39.50;95071.88;5013573;28;20113;-81
2021/01/10 09:01:49;;;;;;;10.85;2.05;;;;;;;23.20;39.88;95063.41;5012950;28;20049;-74
2021/01/10 09:04:15;;;;;;;4.70;1.70;;;;;;;23.33;39.98;95066.25;5008216;28;20029;-72
2021/01/10 09:07:04;;;;;;;8.90;1.70;;;;;;;23.44;39.71;95083.28;5013009;28;20486;-74
2021/01/10 09:09:50;;;;;;;5.83;1.83;;;;;;;23.54;39.55;95062.63;5011628;28;20100;-73
2021/01/10 09:12:19;;;;;;;5.93;1.73;;;;;;;23.63;39.50;95064.28;5009828;28;20423;-75
2021/01/10 09:14:53;;;;;;;4.85;1.65;;;;;;;23.71;39.58;95048.88;5012552;28;20112;-74
2021/01/10 09:17:26;;;;;;;6.45;2.20;;;;;;;23.81;39.10;95030.91;5011387;28;20029;-71
2021/01/10 09:19:52;;;;;;;4.38;1.55;;;;;;;23.92;39.04;95034.28;5011180;28;20037;-75
2021/01/10 09:22:18;;;;;;;5.05;1.70;;;;;;;24.01;38.75;95048.31;4994836;28;20402;-72
2021/01/10 09:24:43;;;;;;;6.13;1.70;;;;;;;24.12;38.85;95048.16;5010733;28;20026;-74
2021/01/10 09:27:10;;;;;;;4.85;1.48;;;;;;;24.18;38.80;95040.66;5009258;28;20032;-74
2021/01/10 09:29:35;;;;;;;11.77;2.40;;;;;;;24.28;38.14;95055.44;5012490;28;20056;-73
2021/01/10 09:32:01;;;;;;;5.22;1.67;;;;;;;24.38;38.39;95048.41;5011718;28;20057;-73
2021/01/10 09:34:27;;;;;;;3.90;1.58;;;;;;;24.36;38.53;95034.53;5006807;28;20034;-73
2021/01/10 09:37:08;;;;;;;5.72;1.80;;;;;;;24.52;38.00;95047.25;5033254;28;20105;-72
2021/01/10 09:39:43;;;;;;;4.00;1.70;;;;;;;24.48;37.53;95024.94;5013223;28;20438;-83
2021/01/10 09:42:09;;;;;;;3.50;1.58;;;;;;;24.57;38.19;95032.75;5013212;28;20030;-81
2021/01/10 09:44:35;;;;;;;2.95;1.63;;;;;;;24.65;37.54;95042.59;5012075;28;20032;-79
2021/01/10 09:47:01;;;;;;;3.30;1.52;;;;;;;24.74;37.35;95025.09;5011834;28;20120;-79
2021/01/10 09:49:30;;;;;;;4.53;1.95;;;;;;;24.79;37.89;95032.47;5010054;28;20053;-68
2021/01/10 09:52:10;;;;;;;2.35;1.83;;;;;;;24.91;37.69;95035.25;5009768;28;20491;-68
2021/01/10 09:54:36;;;;;;;5.88;2.00;;;;;;;24.98;37.34;95039.41;5008787;28;20026;-67
2021/01/10 09:57:13;;;;;;;3.88;2.00;;;;;;;25.00;37.14;95023.97;4988737;28;20038;-67
2021/01/10 09:59:39;;;;;;;3.80;1.90;;;;;;;25.14;37.65;95032.97;5006309;28;20514;-69
2021/01/10 10:02:11;;;;;;;3.08;1.70;;;;;;;25.20;36.96;95022.69;5008760;28;20025;-69
2021/01/10 10:04:36;;;;;;;3.38;1.80;;;;;;;25.22;36.83;95022.91;5009094;28;20411;-69
2021/01/10 10:07:03;;;;;;;3.17;1.65;;;;;;;25.24;36.92;95018.38;5008949;28;20087;-70
2021/01/10 10:09:51;;;;;;;2.63;1.70;;;;;;;25.23;36.48;94989.59;5003541;28;20023;-69
2021/01/10 10:12:17;;;;;;;3.78;1.90;;;;;;;25.34;36.29;94978.47;5009341;28;20025;-70
2021/01/10 10:14:59;;;;;;;3.72;1.73;;;;;;;25.40;36.30;94993.50;5007839;28;20037;-68
2021/01/10 10:17:32;;;;;;;3.20;1.60;;;;;;;25.44;36.11;94987.72;5009218;28;20038;-67
2021/01/10 10:19:58;;;;;;;4.30;1.67;;;;;;;25.48;36.23;94971.75;5007261;28;20495;-67
2021/01/10 10:22:28;;;;;;;4.00;2.17;;;;;;;25.54;36.29;94975.84;5007575;28;20029;-67
2021/01/10 10:24:54;;;;;;;2.92;2.00;;;;;;;25.55;36.27;94971.16;5008513;28;20033;-68
2021/01/10 10:27:20;;;;;;;2.22;1.67;;;;;;;25.57;35.99;94957.69;5007121;28;20080;-69
2021/01/10 10:29:46;;;;;;;2.70;1.55;;;;;;;25.62;35.83;94948.63;5009417;28;20025;-68
2021/01/10 10:32:11;;;;;;;2.67;1.60;;;;;;;25.66;36.05;94960.75;5009562;28;20021;-69
2021/01/10 10:34:37;;;;;;;2.40;1.73;;;;;;;25.63;36.02;94961.03;5014768;28;20022;-74
2021/01/10 10:37:03;;;;;;;3.22;1.70;;;;;;;25.59;35.78;94960.63;5018716;28;20399;-78
2021/01/10 10:39:29;;;;;;;2.67;1.60;;;;;;;25.62;36.00;94970.50;5014680;28;20041;-72
2021/01/10 10:41:55;;;;;;;3.03;1.80;;;;;;;25.62;36.01;94959.56;5010697;28;20097;-74
2021/01/10 10:44:20;;;;;;;3.40;1.45;;;;;;;25.58;36.23;94967.38;5011642;28;20399;-76
2021/01/10 10:46:46;;;;;;;2.72;1.63;;;;;;;25.62;36.40;94971.25;5009932;28;20064;-76
2021/01/10 10:49:15;;;;;;;2.30;1.67;;;;;;;25.61;36.62;94958.09;5006507;28;20046;-76
2021/01/10 10:51:41;;;;;;;3.45;1.80;;;;;;;25.58;36.83;94959.16;5011310;28;20056;-76
2021/01/10 10:54:08;;;;;;;3.58;1.80;;;;;;;25.64;36.33;94951.59;5011409;28;20033;-76
2021/01/10 10:56:39;;;;;;;2.50;1.70;;;;;;;25.63;36.65;94961.78;5010722;28;20088;-74
2021/01/10 10:59:05;;;;;;;3.20;1.80;;;;;;;25.63;36.60;94950.09;5017567;28;20030;-72
2021/01/10 11:01:44;;;;;;;2.95;2.00;;;;;;;25.72;36.31;94952.44;5010676;28;20029;-77
2021/01/10 11:04:09;;;;;;;3.83;2.03;;;;;;;25.70;36.67;94960.47;5010149;28;20053;-74
2021/01/10 11:06:35;;;;;;;2.67;1.73;;;;;;;25.72;36.60;94968.88;5008500;28;20034;-74
2021/01/10 11:09:00;;;;;;;2.70;1.70;;;;;;;25.81;36.35;94961.72;5011737;28;20469;-76
2021/01/10 11:11:45;;;;;;;5.05;1.77;;;;;;;25.83;36.40;94969.41;5011854;28;20486;-75
2021/01/10 11:14:15;;;;;;;3.47;1.75;;;;;;;25.79;36.73;94968.25;5006534;28;20029;-75
2021/01/10 11:16:43;;;;;;;2.50;1.77;;;;;;;25.77;36.60;94955.09;5010056;28;20018;-77
2021/01/10 11:19:08;;;;;;;2.70;1.75;;;;;;;25.82;36.83;94957.72;5015901;28;20034;-86
2021/01/10 11:21:36;;;;;;;3.15;1.80;;;;;;;25.80;36.47;94965.00;5011188;28;20100;-82
2021/01/10 11:24:02;;;;;;;3.17;1.80;;;;;;;25.83;36.33;94959.19;5014265;28;20045;-85
2021/01/10 11:26:27;;;;;;;3.42;1.85;;;;;;;25.81;36.45;94945.31;5015571;28;20026;-79
2021/01/10 11:28:53;;;;;;;2.33;1.83;;;;;;;25.83;36.44;94947.53;5015139;28;20072;-78
2021/01/10 11:31:19;;;;;;;2.58;1.80;;;;;;;25.67;36.54;94917.75;5016932;28;20030;-81
2021/01/10 11:33:45;;;;;;;2.80;1.80;;;;;;;25.71;36.47;94929.09;5014894;28;20577;-77
2021/01/10 11:36:11;;;;;;;3.20;1.92;;;;;;;25.75;36.43;94929.53;4994496;28;20030;-80
2021/01/10 11:38:36;;;;;;;2.97;1.67;;;;;;;25.59;36.54;94900.44;5004446;28;20075;-79